sensor_id;sensor_type;location;lat;lon;timestamp;P1;durP1;ratioP1;P2;durP2;ratioP2
8885;SDS011;4479;51.162;13.906;2023-10-13T00:08:37;4.87;;;4.13;;
8885;SDS011;4479;51.162;13.906;2023-10-13T00:18:39;5.33;;;3.83;;
8885;SDS011;4479;51.162;13.906;2023-10-13T00:28:43;4.13;;;3.70;;
8885;SDS011;4479;51.162;13.906;2023-10-13T00:38:47;6.47;;;3.50;;
8885;SDS011;4479;51.162;13.906;2023-10-13T00:48:51;5.63;;;3.70;;
8885;SDS011;4479;51.162;13.906;2023-10-13T00:58:55;3.73;;;3.33;;
8885;SDS011;4479;51.162;13.906;2023-10-13T01:09:04;7.53;;;3.83;;
8885;SDS011;4479;51.162;13.906;2023-10-13T01:19:16;5.77;;;3.43;;
8885;SDS011;4479;51.162;13.906;2023-10-13T01:29:21;4.00;;;3.10;;
8885;SDS011;4479;51.162;13.906;2023-10-13T01:39:26;4.17;;;3.10;;
8885;SDS011;4479;51.162;13.906;2023-10-13T01:49:30;3.80;;;3.30;;
8885;SDS011;4479;51.162;13.906;2023-10-13T01:59:41;4.23;;;3.40;;
8885;SDS011;4479;51.162;13.906;2023-10-13T02:09:46;4.30;;;2.93;;
8885;SDS011;4479;51.162;13.906;2023-10-13T02:19:48;4.30;;;3.13;;
8885;SDS011;4479;51.162;13.906;2023-10-13T02:29:55;3.80;;;3.27;;
8885;SDS011;4479;51.162;13.906;2023-10-13T02:39:59;3.90;;;2.90;;
8885;SDS011;4479;51.162;13.906;2023-10-13T02:50:05;4.10;;;3.17;;
8885;SDS011;4479;51.162;13.906;2023-10-13T03:00:13;3.97;;;3.03;;
8885;SDS011;4479;51.162;13.906;2023-10-13T03:10:19;4.17;;;2.90;;
8885;SDS011;4479;51.162;13.906;2023-10-13T03:20:28;3.30;;;2.60;;
8885;SDS011;4479;51.162;13.906;2023-10-13T03:30:37;3.63;;;2.60;;
8885;SDS011;4479;51.162;13.906;2023-10-13T03:40:42;4.50;;;2.70;;
8885;SDS011;4479;51.162;13.906;2023-10-13T03:50:51;4.87;;;2.47;;
8885;SDS011;4479;51.162;13.906;2023-10-13T04:01:02;2.87;;;2.43;;
8885;SDS011;4479;51.162;13.906;2023-10-13T04:11:06;2.40;;;2.20;;
8885;SDS011;4479;51.162;13.906;2023-10-13T04:21:40;2.90;;;2.70;;
8885;SDS011;4479;51.162;13.906;2023-10-13T04:31:56;3.30;;;2.67;;
8885;SDS011;4479;51.162;13.906;2023-10-13T04:42:00;2.80;;;2.43;;
8885;SDS011;4479;51.162;13.906;2023-10-13T04:52:15;2.50;;;2.30;;
8885;SDS011;4479;51.162;13.906;2023-10-13T05:02:39;2.67;;;2.47;;
8885;SDS011;4479;51.162;13.906;2023-10-13T05:13:17;3.43;;;2.27;;
8885;SDS011;4479;51.162;13.906;2023-10-13T05:23:37;4.07;;;2.07;;
8885;SDS011;4479;51.162;13.906;2023-10-13T05:33:58;2.77;;;2.50;;
8885;SDS011;4479;51.162;13.906;2023-10-13T05:44:18;2.57;;;2.37;;
8885;SDS011;4479;51.162;13.906;2023-10-13T05:54:54;3.30;;;2.47;;
8885;SDS011;4479;51.162;13.906;2023-10-13T06:05:14;3.23;;;2.33;;
8885;SDS011;4479;51.162;13.906;2023-10-13T06:15:36;2.57;;;2.37;;
8885;SDS011;4479;51.162;13.906;2023-10-13T06:25:56;3.77;;;2.20;;
8885;SDS011;4479;51.162;13.906;2023-10-13T06:36:17;3.13;;;2.23;;
8885;SDS011;4479;51.162;13.906;2023-10-13T06:46:20;3.80;;;3.13;;
8885;SDS011;4479;51.162;13.906;2023-10-13T06:56:26;4.90;;;4.40;;
8885;SDS011;4479;51.162;13.906;2023-10-13T07:06:30;7.70;;;5.90;;
8885;SDS011;4479;51.162;13.906;2023-10-13T07:16:35;7.53;;;6.67;;
8885;SDS011;4479;51.162;13.906;2023-10-13T07:26:46;8.37;;;6.80;;
8885;SDS011;4479;51.162;13.906;2023-10-13T07:36:59;7.63;;;6.93;;
8885;SDS011;4479;51.162;13.906;2023-10-13T07:47:02;6.70;;;6.10;;
8885;SDS011;4479;51.162;13.906;2023-10-13T07:57:08;7.03;;;6.43;;
8885;SDS011;4479;51.162;13.906;2023-10-13T08:07:15;6.20;;;5.60;;
8885;SDS011;4479;51.162;13.906;2023-10-13T08:17:32;6.27;;;5.67;;
8885;SDS011;4479;51.162;13.906;2023-10-13T08:27:35;5.73;;;5.23;;
8885;SDS011;4479;51.162;13.906;2023-10-13T08:37:50;5.63;;;4.77;;
8885;SDS011;4479;51.162;13.906;2023-10-13T08:59:27;3.40;;;3.13;;
8885;SDS011;4479;51.162;13.906;2023-10-13T09:09:45;3.13;;;2.83;;
8885;SDS011;4479;51.162;13.906;2023-10-13T09:20:13;3.47;;;3.17;;
8885;SDS011;4479;51.162;13.906;2023-10-13T09:30:31;2.50;;;2.30;;
8885;SDS011;4479;51.162;13.906;2023-10-13T09:40:36;2.13;;;1.93;;
8885;SDS011;4479;51.162;13.906;2023-10-13T09:50:39;3.90;;;3.60;;
8885;SDS011;4479;51.162;13.906;2023-10-13T10:00:50;4.80;;;4.40;;
8885;SDS011;4479;51.162;13.906;2023-10-13T10:11:11;7.07;;;5.53;;
8885;SDS011;4479;51.162;13.906;2023-10-13T10:21:33;7.03;;;6.33;;
8885;SDS011;4479;51.162;13.906;2023-10-13T10:31:36;6.70;;;6.07;;
8885;SDS011;4479;51.162;13.906;2023-10-13T10:41:45;7.07;;;6.47;;
8885;SDS011;4479;51.162;13.906;2023-10-13T10:51:52;6.37;;;5.77;;
8885;SDS011;4479;51.162;13.906;2023-10-13T11:01:59;6.93;;;6.03;;
8885;SDS011;4479;51.162;13.906;2023-10-13T11:12:11;4.57;;;3.70;;
8885;SDS011;4479;51.162;13.906;2023-10-13T11:22:25;3.93;;;2.90;;
8885;SDS011;4479;51.162;13.906;2023-10-13T11:32:32;4.30;;;2.77;;
8885;SDS011;4479;51.162;13.906;2023-10-13T11:42:36;4.07;;;2.90;;
8885;SDS011;4479;51.162;13.906;2023-10-13T11:52:43;3.53;;;3.10;;
8885;SDS011;4479;51.162;13.906;2023-10-13T12:02:48;3.77;;;3.00;;
8885;SDS011;4479;51.162;13.906;2023-10-13T12:13:08;4.33;;;3.07;;
8885;SDS011;4479;51.162;13.906;2023-10-13T12:23:12;5.00;;;3.50;;
8885;SDS011;4479;51.162;13.906;2023-10-13T12:33:20;7.17;;;3.43;;
8885;SDS011;4479;51.162;13.906;2023-10-13T12:43:28;6.30;;;5.70;;
8885;SDS011;4479;51.162;13.906;2023-10-13T12:53:48;13.20;;;7.00;;
8885;SDS011;4479;51.162;13.906;2023-10-13T13:03:52;8.53;;;7.07;;
8885;SDS011;4479;51.162;13.906;2023-10-13T13:13:56;6.13;;;5.57;;
8885;SDS011;4479;51.162;13.906;2023-10-13T13:24:00;9.43;;;5.17;;
8885;SDS011;4479;51.162;13.906;2023-10-13T13:34:04;5.97;;;4.70;;
8885;SDS011;4479;51.162;13.906;2023-10-13T13:44:07;7.27;;;4.13;;
8885;SDS011;4479;51.162;13.906;2023-10-13T13:54:14;4.80;;;3.50;;
8885;SDS011;4479;51.162;13.906;2023-10-13T14:04:18;6.73;;;4.50;;
8885;SDS011;4479;51.162;13.906;2023-10-13T14:14:21;5.67;;;3.60;;
8885;SDS011;4479;51.162;13.906;2023-10-13T14:24:35;7.03;;;3.87;;
8885;SDS011;4479;51.162;13.906;2023-10-13T14:34:43;9.10;;;3.80;;
8885;SDS011;4479;51.162;13.906;2023-10-13T14:44:50;4.77;;;3.73;;
8885;SDS011;4479;51.162;13.906;2023-10-13T14:54:55;7.43;;;3.73;;
8885;SDS011;4479;51.162;13.906;2023-10-13T15:04:59;7.10;;;3.97;;
8885;SDS011;4479;51.162;13.906;2023-10-13T15:15:03;8.80;;;3.80;;
8885;SDS011;4479;51.162;13.906;2023-10-13T15:25:14;11.87;;;7.90;;
8885;SDS011;4479;51.162;13.906;2023-10-13T15:35:28;5.70;;;4.17;;
8885;SDS011;4479;51.162;13.906;2023-10-13T15:45:32;5.93;;;3.77;;
8885;SDS011;4479;51.162;13.906;2023-10-13T16:07:07;6.57;;;3.73;;
8885;SDS011;4479;51.162;13.906;2023-10-13T16:17:34;6.00;;;4.13;;
8885;SDS011;4479;51.162;13.906;2023-10-13T16:27:40;6.33;;;3.87;;
8885;SDS011;4479;51.162;13.906;2023-10-13T16:37:48;5.70;;;3.53;;
8885;SDS011;4479;51.162;13.906;2023-10-13T16:47:53;7.53;;;4.07;;
8885;SDS011;4479;51.162;13.906;2023-10-13T16:57:55;8.53;;;6.07;;
8885;SDS011;4479;51.162;13.906;2023-10-13T17:07:59;5.73;;;3.87;;
8885;SDS011;4479;51.162;13.906;2023-10-13T17:18:03;5.17;;;3.93;;
8885;SDS011;4479;51.162;13.906;2023-10-13T17:28:08;5.83;;;4.07;;
8885;SDS011;4479;51.162;13.906;2023-10-13T17:38:17;6.27;;;4.50;;
8885;SDS011;4479;51.162;13.906;2023-10-13T17:48:20;6.23;;;3.97;;
8885;SDS011;4479;51.162;13.906;2023-10-13T17:58:23;7.60;;;3.60;;
8885;SDS011;4479;51.162;13.906;2023-10-13T18:08:27;5.10;;;3.90;;
8885;SDS011;4479;51.162;13.906;2023-10-13T18:18:30;4.97;;;3.77;;
8885;SDS011;4479;51.162;13.906;2023-10-13T18:28:33;4.67;;;3.63;;
8885;SDS011;4479;51.162;13.906;2023-10-13T18:38:36;6.27;;;4.00;;
8885;SDS011;4479;51.162;13.906;2023-10-13T18:48:40;7.37;;;3.63;;
8885;SDS011;4479;51.162;13.906;2023-10-13T18:58:44;6.07;;;3.20;;
8885;SDS011;4479;51.162;13.906;2023-10-13T19:08:55;5.60;;;3.43;;
8885;SDS011;4479;51.162;13.906;2023-10-13T19:18:57;5.20;;;3.17;;
8885;SDS011;4479;51.162;13.906;2023-10-13T19:29:05;7.23;;;4.00;;
8885;SDS011;4479;51.162;13.906;2023-10-13T19:39:08;4.40;;;3.27;;
8885;SDS011;4479;51.162;13.906;2023-10-13T19:49:20;3.50;;;3.03;;
8885;SDS011;4479;51.162;13.906;2023-10-13T19:59:25;4.63;;;3.03;;
8885;SDS011;4479;51.162;13.906;2023-10-13T20:09:29;5.43;;;3.17;;
8885;SDS011;4479;51.162;13.906;2023-10-13T20:19:32;5.13;;;2.97;;
8885;SDS011;4479;51.162;13.906;2023-10-13T20:29:39;5.37;;;3.07;;
8885;SDS011;4479;51.162;13.906;2023-10-13T20:39:42;5.47;;;3.17;;
8885;SDS011;4479;51.162;13.906;2023-10-13T20:49:46;9.00;;;3.23;;
8885;SDS011;4479;51.162;13.906;2023-10-13T20:59:52;4.40;;;3.17;;
8885;SDS011;4479;51.162;13.906;2023-10-13T21:10:06;8.17;;;3.43;;
8885;SDS011;4479;51.162;13.906;2023-10-13T21:30:44;5.90;;;3.20;;
8885;SDS011;4479;51.162;13.906;2023-10-13T21:40:47;6.83;;;3.00;;
8885;SDS011;4479;51.162;13.906;2023-10-13T21:50:51;3.23;;;2.60;;
8885;SDS011;4479;51.162;13.906;2023-10-13T22:00:54;4.93;;;2.43;;
8885;SDS011;4479;51.162;13.906;2023-10-13T22:11:00;4.97;;;2.30;;
8885;SDS011;4479;51.162;13.906;2023-10-13T22:21:03;4.30;;;2.33;;
8885;SDS011;4479;51.162;13.906;2023-10-13T22:31:08;4.00;;;2.43;;
8885;SDS011;4479;51.162;13.906;2023-10-13T22:41:11;4.87;;;2.47;;
8885;SDS011;4479;51.162;13.906;2023-10-13T22:51:16;2.80;;;1.90;;
8885;SDS011;4479;51.162;13.906;2023-10-13T23:01:19;4.73;;;2.50;;
8885;SDS011;4479;51.162;13.906;2023-10-13T23:11:23;3.23;;;1.93;;
8885;SDS011;4479;51.162;13.906;2023-10-13T23:21:33;3.83;;;2.00;;
8885;SDS011;4479;51.162;13.906;2023-10-13T23:31:39;4.07;;;2.13;;
8885;SDS011;4479;51.162;13.906;2023-10-13T23:41:44;4.27;;;2.17;;
8885;SDS011;4479;51.162;13.906;2023-10-13T23:51:47;2.97;;;1.93;;
